Time;durP1;ratioP1;P1;durP2;ratioP2;P2;SDS_P1;SDS_P2;PMS_P1;PMS_P2;Temp;Humidity;BMP_temperature;BMP_pressure;BME280_temperature;BME280_humidity;BME280_pressure;Samples;Min_cycle;Max_cycle;Signal;HPM_P1;HPM_P2
2021/05/06 00:01:15;;;;;;;33.67;6.23;;;21.20;99.90;;;;;;5070813;28;20652;-76
2021/05/06 00:33:25;;;;;;;28.97;5.47;;;21.20;99.90;;;;;;5046525;28;20212;-75
2021/05/06 00:35:52;;;;;;;30.67;4.60;;;21.10;99.90;;;;;;5050635;28;20234;-75
2021/05/06 00:38:25;;;;;;;27.33;5.00;;;21.10;99.90;;;;;;5055460;28;20175;-72
2021/05/06 00:41:14;;;;;;;34.47;5.93;;;21.20;99.90;;;;;;5050473;28;20184;-72
2021/05/06 00:53:53;;;;;;;31.33;5.50;;;21.40;99.90;;;;;;5050312;28;20692;-76
2021/05/06 01:05:48;;;;;;;21.10;4.20;;;21.60;99.90;;;;;;5047396;28;20684;-80
2021/05/06 01:08:23;;;;;;;21.70;4.00;;;21.60;99.90;;;;;;5048664;28;20180;-78
2021/05/06 01:13:25;;;;;;;30.70;4.70;;;21.60;99.90;;;;;;5051889;28;20266;-84
2021/05/06 01:15:52;;;;;;;23.20;4.40;;;21.50;99.90;;;;;;5050382;28;20222;-72
2021/05/06 01:18:21;;;;;;;29.60;5.40;;;21.60;99.90;;;;;;5048496;28;20183;-80
2021/05/06 01:20:53;;;;;;;32.30;5.33;;;21.50;99.90;;;;;;5049589;28;20659;-85
2021/05/06 01:23:22;;;;;;;33.43;5.63;;;21.40;99.90;;;;;;5049727;28;20191;-85
2021/05/06 01:25:59;;;;;;;21.10;4.57;;;21.40;99.90;;;;;;5050893;28;20183;-73
2021/05/06 01:28:35;;;;;;;31.17;5.90;;;21.30;99.90;;;;;;5059120;28;20190;-81
2021/05/06 01:31:07;;;;;;;33.00;5.70;;;21.10;99.90;;;;;;5054827;28;20273;-78
2021/05/06 01:36:13;;;;;;;38.20;5.90;;;21.10;99.90;;;;;;5068355;28;20243;-77
2021/05/06 01:39:08;;;;;;;32.37;6.07;;;21.20;99.90;;;;;;5060501;28;20305;-78
2021/05/06 01:45:00;;;;;;;30.47;5.77;;;21.20;99.90;;;;;;5062084;28;20188;-71
2021/05/06 02:00:30;;;;;;;38.53;5.90;;;21.00;99.90;;;;;;5065911;28;20180;-74
2021/05/06 02:03:00;;;;;;;28.27;5.57;;;20.90;99.90;;;;;;5073350;28;20583;-75
2021/05/06 02:05:28;;;;;;;38.40;6.20;;;20.80;99.90;;;;;;5071074;28;20602;-75
2021/05/06 02:07:55;;;;;;;30.53;5.17;;;20.80;99.90;;;;;;5075458;28;20218;-76
2021/05/06 02:10:25;;;;;;;39.70;6.70;;;20.70;99.90;;;;;;5075543;28;20202;-74
2021/05/06 02:12:54;;;;;;;36.53;6.43;;;20.80;99.90;;;;;;5068371;28;20306;-71
2021/05/06 02:15:25;;;;;;;34.70;5.80;;;20.80;99.90;;;;;;5045840;28;20176;-75
2021/05/06 02:17:54;;;;;;;38.37;6.37;;;20.80;99.90;;;;;;5054444;28;20199;-75
2021/05/06 02:20:21;;;;;;;40.23;5.93;;;20.90;99.90;;;;;;5056400;28;20225;-73
2021/05/06 02:22:50;;;;;;;36.07;6.43;;;21.00;99.90;;;;;;5056002;28;20302;-75
2021/05/06 02:25:19;;;;;;;32.40;6.63;;;21.20;99.90;;;;;;5054629;28;20220;-79
2021/05/06 02:27:48;;;;;;;35.63;6.73;;;21.20;99.90;;;;;;5065240;28;20189;-82
2021/05/06 02:30:17;;;;;;;39.43;7.40;;;21.30;99.90;;;;;;5075862;28;20237;-76
2021/05/06 02:32:44;;;;;;;35.40;6.77;;;21.40;99.90;;;;;;5076207;28;20711;-74
2021/05/06 02:35:12;;;;;;;40.23;6.60;;;21.50;99.90;;;;;;5076384;28;20175;-71
2021/05/06 02:37:40;;;;;;;38.20;6.10;;;21.50;99.90;;;;;;5075059;28;20179;-76
2021/05/06 02:40:09;;;;;;;38.97;6.57;;;21.60;99.90;;;;;;5070447;28;20187;-75
2021/05/06 02:42:37;;;;;;;37.90;7.47;;;21.70;99.90;;;;;;5075836;28;20184;-75
2021/05/06 02:45:05;;;;;;;29.80;7.50;;;21.70;99.90;;;;;;5075937;28;20179;-77
2021/05/06 02:47:33;;;;;;;38.03;6.10;;;21.70;99.90;;;;;;5075510;28;20191;-77
2021/05/06 02:50:00;;;;;;;23.57;4.60;;;21.60;99.90;;;;;;5075458;28;20183;-78
2021/05/06 02:52:34;;;;;;;33.37;5.40;;;21.50;99.90;;;;;;5075268;28;20642;-76
2021/05/06 03:02:48;;;;;;;20.20;4.03;;;21.70;99.90;;;;;;5069584;28;20194;-74
2021/05/06 03:05:16;;;;;;;27.30;5.03;;;21.50;99.90;;;;;;5074049;28;20236;-76
2021/05/06 03:07:49;;;;;;;24.90;3.60;;;21.50;99.90;;;;;;5074207;28;20175;-72
2021/05/06 03:11:12;;;;;;;20.93;3.13;;;21.20;99.90;;;;;;5074052;28;20175;-72
2021/05/06 03:13:58;;;;;;;19.27;3.13;;;21.20;99.90;;;;;;5062544;28;20679;-71
2021/05/06 03:24:07;;;;;;;15.17;2.97;;;21.00;99.90;;;;;;5074024;28;20201;-73
2021/05/06 03:26:35;;;;;;;9.17;2.40;;;20.90;99.90;;;;;;5073646;28;20179;-73
2021/05/06 03:29:13;;;;;;;15.57;2.63;;;20.90;99.90;;;;;;5073507;28;20545;-73
2021/05/06 04:21:30;;;;;;;29.30;5.03;;;21.10;99.90;;;;;;5071885;28;20627;-72
2021/05/06 04:27:42;;;;;;;30.97;4.87;;;21.10;99.90;;;;;;5052820;28;20653;-71
2021/05/06 04:35:48;;;;;;;31.13;6.47;;;22.10;99.90;;;;;;5072526;28;20567;-72
2021/05/06 04:38:18;;;;;;;34.10;5.53;;;22.30;99.90;;;;;;5068067;28;20179;-79
2021/05/06 05:04:57;;;;;;;27.47;5.37;;;22.10;99.90;;;;;;5056901;28;20187;-76
2021/05/06 05:07:33;;;;;;;29.30;6.33;;;22.20;99.90;;;;;;5055133;28;20180;-79
2021/05/06 05:25:58;;;;;;;33.27;6.13;;;21.80;99.90;;;;;;5058260;28;20233;-75
2021/05/06 05:28:25;;;;;;;34.27;6.37;;;21.70;99.90;;;;;;5057653;28;20277;-75
2021/05/06 05:30:53;;;;;;;32.80;5.87;;;21.60;99.90;;;;;;5058286;28;20238;-73
2021/05/06 05:33:22;;;;;;;35.73;6.17;;;21.50;99.90;;;;;;5058476;28;20211;-74
2021/05/06 05:38:44;;;;;;;32.40;6.00;;;21.60;99.90;;;;;;5058139;28;20246;-79
2021/05/06 05:54:49;;;;;;;38.80;7.07;;;21.50;99.90;;;;;;5057961;28;20199;-74
2021/05/06 05:57:17;;;;;;;36.07;6.07;;;21.40;99.90;;;;;;5056741;28;20269;-73
2021/05/06 05:59:44;;;;;;;32.47;5.93;;;21.30;99.90;;;;;;5057632;28;20693;-73
2021/05/06 06:02:11;;;;;;;33.63;6.27;;;21.30;99.90;;;;;;5058092;28;20183;-73
2021/05/06 06:04:39;;;;;;;36.80;8.57;;;21.20;99.90;;;;;;5056867;28;20182;-81
2021/05/06 06:07:06;;;;;;;46.60;7.53;;;21.20;99.90;;;;;;5057953;28;20600;-76
2021/05/06 06:09:34;;;;;;;27.70;5.33;;;21.10;99.90;;;;;;5058049;28;20179;-75
2021/05/06 06:12:01;;;;;;;33.20;6.90;;;21.10;99.90;;;;;;5054534;28;20214;-74
2021/05/06 06:14:46;;;;;;;38.93;7.03;;;21.10;99.90;;;;;;5054123;28;20208;-76
2021/05/06 06:17:13;;;;;;;63.47;18.20;;;21.10;99.90;;;;;;5054843;28;20175;-77
2021/05/06 06:19:47;;;;;;;71.10;20.43;;;21.10;99.90;;;;;;5054642;28;20237;-75
2021/05/06 06:22:16;;;;;;;36.80;6.70;;;21.00;99.90;;;;;;5055176;28;20196;-82
2021/05/06 06:24:44;;;;;;;65.13;23.83;;;20.90;99.90;;;;;;5049815;28;20643;-74
2021/05/06 06:27:12;;;;;;;42.73;8.93;;;20.90;99.90;;;;;;5049978;28;20195;-77
2021/05/06 06:29:39;;;;;;;144.40;64.03;;;20.90;99.90;;;;;;5050347;28;20192;-81
2021/05/06 06:32:11;;;;;;;108.87;43.87;;;20.80;99.90;;;;;;5050204;28;20212;-72
2021/05/06 06:34:38;;;;;;;31.87;6.43;;;20.80;99.90;;;;;;5054042;28;20210;-72
2021/05/06 06:37:06;;;;;;;28.70;7.93;;;20.80;99.90;;;;;;5040353;28;20225;-72
2021/05/06 06:39:36;;;;;;;31.07;6.10;;;20.70;99.90;;;;;;5053369;28;20192;-72
2021/05/06 06:42:03;;;;;;;27.07;6.27;;;20.70;99.90;;;;;;5052416;28;20180;-72
2021/05/06 06:44:33;;;;;;;26.90;6.03;;;20.60;99.90;;;;;;5053338;28;20186;-74
2021/05/06 06:47:04;;;;;;;42.70;11.43;;;20.60;99.90;;;;;;5052040;28;20198;-71
2021/05/06 06:49:40;;;;;;;36.87;6.37;;;20.50;99.90;;;;;;5052514;28;20188;-75
2021/05/06 06:52:10;;;;;;;29.13;5.20;;;20.50;99.90;;;;;;5052756;28;20719;-72
2021/05/06 06:54:38;;;;;;;29.60;5.90;;;20.40;99.90;;;;;;5050353;28;20642;-72
2021/05/06 06:57:06;;;;;;;30.73;5.90;;;20.40;99.90;;;;;;5053024;28;20188;-71
2021/05/06 06:59:34;;;;;;;27.63;6.03;;;20.30;99.90;;;;;;5052746;28;20186;-74
2021/05/06 07:02:01;;;;;;;30.80;6.87;;;20.30;99.90;;;;;;5044352;28;20646;-76
2021/05/06 07:04:29;;;;;;;33.63;7.47;;;20.30;99.90;;;;;;5052137;28;20187;-73
2021/05/06 07:06:56;;;;;;;30.20;6.07;;;20.30;99.90;;;;;;5053465;28;20190;-80
2021/05/06 07:09:24;;;;;;;28.43;5.27;;;20.30;99.90;;;;;;5051804;28;20588;-75
2021/05/06 07:11:52;;;;;;;26.20;6.53;;;20.30;99.90;;;;;;5053516;28;20210;-73
2021/05/06 07:14:19;;;;;;;22.73;4.63;;;20.30;99.90;;;;;;5052709;28;20180;-76
2021/05/06 07:16:46;;;;;;;24.70;4.43;;;20.30;99.90;;;;;;5053031;28;20180;-77
2021/05/06 07:19:14;;;;;;;25.67;5.20;;;20.30;99.90;;;;;;5051703;28;20255;-73
2021/05/06 07:21:41;;;;;;;26.70;5.27;;;20.40;99.90;;;;;;5052386;28;20187;-75
2021/05/06 07:24:09;;;;;;;22.53;4.83;;;20.40;99.90;;;;;;5053429;28;20184;-75
2021/05/06 07:26:37;;;;;;;28.70;5.70;;;20.30;99.90;;;;;;5052423;28;20191;-73
2021/05/06 07:29:05;;;;;;;25.77;4.67;;;20.30;99.90;;;;;;5049561;28;20176;-82
2021/05/06 07:31:33;;;;;;;20.37;4.10;;;20.20;99.90;;;;;;5045339;28;20237;-78
2021/05/06 07:34:00;;;;;;;21.07;4.50;;;20.10;99.90;;;;;;5053823;28;20207;-78
2021/05/06 07:36:27;;;;;;;27.37;5.27;;;20.10;99.90;;;;;;5044354;28;20176;-73
2021/05/06 07:38:55;;;;;;;26.77;4.60;;;20.10;99.90;;;;;;5054364;28;20210;-78
2021/05/06 07:41:22;;;;;;;27.43;4.73;;;20.10;99.90;;;;;;5054422;28;20263;-78
2021/05/06 07:43:49;;;;;;;29.63;4.90;;;20.10;99.90;;;;;;5061615;28;20215;-76
2021/05/06 07:46:17;;;;;;;27.13;4.97;;;20.10;99.90;;;;;;5046939;28;20653;-76
2021/05/06 07:48:44;;;;;;;26.57;4.90;;;20.10;99.90;;;;;;5047694;28;20198;-78
2021/05/06 07:51:12;;;;;;;31.30;5.43;;;20.10;99.90;;;;;;5052861;28;20183;-78
2021/05/06 07:53:49;;;;;;;26.07;5.17;;;20.10;99.90;;;;;;5071347;28;20321;-78
2021/05/06 07:56:17;;;;;;;30.77;7.03;;;20.10;99.90;;;;;;5040913;28;20180;-72
2021/05/06 07:58:45;;;;;;;30.60;6.17;;;20.10;99.90;;;;;;5053208;28;20191;-76
2021/05/06 08:01:12;;;;;;;39.00;7.07;;;20.10;99.90;;;;;;5071445;28;20187;-79
2021/05/06 08:03:40;;;;;;;35.43;5.53;;;20.10;99.90;;;;;;5058114;28;20176;-82
2021/05/06 08:06:08;;;;;;;40.10;11.73;;;20.10;99.90;;;;;;5055005;28;20552;-80
2021/05/06 08:08:35;;;;;;;40.37;11.77;;;20.10;99.90;;;;;;5062039;28;20191;-81
2021/05/06 08:11:03;;;;;;;30.40;9.10;;;20.10;99.90;;;;;;5065895;28;20184;-81
2021/05/06 08:13:31;;;;;;;45.57;7.43;;;20.10;99.90;;;;;;5072797;28;20226;-81
2021/05/06 08:15:58;;;;;;;33.57;7.70;;;20.10;99.90;;;;;;5063338;28;20180;-76
2021/05/06 08:18:26;;;;;;;33.40;6.73;;;20.10;99.90;;;;;;5055154;28;20195;-78
2021/05/06 08:20:53;;;;;;;31.60;6.27;;;20.10;99.90;;;;;;5063698;28;20184;-81
2021/05/06 08:23:21;;;;;;;36.40;6.63;;;20.10;99.90;;;;;;5067041;28;20187;-76
2021/05/06 08:25:49;;;;;;;34.87;7.00;;;20.10;99.90;;;;;;5063988;28;20189;-74
2021/05/06 08:28:16;;;;;;;35.60;7.73;;;20.10;99.90;;;;;;5072288;28;20637;-72
2021/05/06 08:30:44;;;;;;;30.87;6.40;;;20.00;99.90;;;;;;5068789;28;20704;-81
2021/05/06 08:33:11;;;;;;;35.73;7.00;;;20.00;99.90;;;;;;5065082;28;20222;-80
2021/05/06 08:35:39;;;;;;;37.83;7.10;;;20.00;99.90;;;;;;5060244;28;20179;-81
2021/05/06 08:38:06;;;;;;;36.00;9.27;;;20.10;99.90;;;;;;5066823;28;20213;-76
2021/05/06 08:40:36;;;;;;;44.00;14.67;;;20.10;99.90;;;;;;5055453;28;20183;-80
2021/05/06 08:43:08;;;;;;;31.17;8.33;;;20.10;99.90;;;;;;5065602;28;20175;-80
2021/05/06 08:45:42;;;;;;;34.90;7.33;;;20.00;99.90;;;;;;5050973;28;20187;-79
2021/05/06 08:48:12;;;;;;;33.97;6.63;;;20.00;99.90;;;;;;5061501;28;20693;-81
2021/05/06 08:50:42;;;;;;;35.90;6.20;;;20.00;99.90;;;;;;5065709;28;20184;-81
2021/05/06 08:53:11;;;;;;;31.67;6.17;;;20.00;99.90;;;;;;5062689;28;20264;-81
2021/05/06 08:55:39;;;;;;;40.60;7.00;;;20.00;99.90;;;;;;5068563;28;20168;-81
2021/05/06 08:58:06;;;;;;;33.83;6.50;;;20.00;99.90;;;;;;5063605;28;20175;-78
2021/05/06 09:00:34;;;;;;;38.03;6.43;;;20.00;99.90;;;;;;5071845;28;20183;-81
2021/05/06 09:03:01;;;;;;;34.97;6.80;;;19.90;99.90;;;;;;5055070;28;20184;-78
2021/05/06 09:05:28;;;;;;;35.13;6.50;;;19.90;99.90;;;;;;5047876;28;20259;-80
2021/05/06 09:07:56;;;;;;;39.07;6.97;;;19.90;99.90;;;;;;5065196;28;20171;-81
2021/05/06 09:10:40;;;;;;;33.03;6.20;;;19.90;99.90;;;;;;5071984;28;20585;-78
2021/05/06 09:13:31;;;;;;;44.13;7.60;;;19.90;99.90;;;;;;5058196;28;20562;-79
2021/05/06 09:15:59;;;;;;;38.73;6.33;;;19.80;99.90;;;;;;5071930;28;20183;-77
2021/05/06 09:18:47;;;;;;;38.03;7.60;;;19.90;99.90;;;;;;5056879;28;20241;-81
2021/05/06 09:21:31;;;;;;;36.50;6.60;;;19.80;99.90;;;;;;5063063;28;20237;-77
2021/05/06 09:24:11;;;;;;;42.53;7.27;;;19.90;99.90;;;;;;5052617;28;20246;-81
2021/05/06 09:26:42;;;;;;;30.17;6.53;;;19.80;99.90;;;;;;5065937;28;20537;-80
2021/05/06 09:29:11;;;;;;;32.70;6.33;;;19.80;99.90;;;;;;5057525;28;20182;-76
2021/05/06 09:31:43;;;;;;;44.73;7.53;;;19.70;99.90;;;;;;5068800;28;20677;-79
2021/05/06 09:34:14;;;;;;;31.07;6.43;;;19.70;99.90;;;;;;5064216;28;20286;-76
2021/05/06 09:36:44;;;;;;;34.53;6.40;;;19.60;99.90;;;;;;5042071;28;20184;-80
2021/05/06 09:39:11;;;;;;;26.13;5.20;;;19.60;99.90;;;;;;5053299;28;20184;-80
2021/05/06 09:41:39;;;;;;;34.47;6.73;;;19.50;99.90;;;;;;5071392;28;20202;-78
2021/05/06 09:44:16;;;;;;;27.67;5.83;;;19.50;99.90;;;;;;5058248;28;20283;-76
2021/05/06 09:46:56;;;;;;;34.57;6.13;;;19.40;99.90;;;;;;5052089;28;20187;-80
2021/05/06 09:49:24;;;;;;;41.53;6.10;;;19.40;99.90;;;;;;5057471;28;20190;-78
2021/05/06 09:51:58;;;;;;;46.67;6.60;;;19.40;99.90;;;;;;5063565;28;20189;-81
2021/05/06 09:54:29;;;;;;;31.73;6.97;;;19.40;99.90;;;;;;5065376;28;20214;-80
2021/05/06 09:57:05;;;;;;;30.87;6.03;;;19.40;99.90;;;;;;5072731;28;20179;-78
2021/05/06 09:59:40;;;;;;;35.67;6.70;;;19.50;99.90;;;;;;5042910;28;20242;-80
2021/05/06 10:02:13;;;;;;;43.77;8.17;;;19.50;99.90;;;;;;5053148;28;20207;-81
2021/05/06 10:04:45;;;;;;;45.00;7.90;;;19.50;99.90;;;;;;5054951;28;20626;-78
2021/05/06 10:07:23;;;;;;;38.60;7.40;;;19.50;99.90;;;;;;5055015;28;20651;-79
2021/05/06 10:09:53;;;;;;;43.53;6.77;;;19.50;99.90;;;;;;5055005;28;20199;-75
2021/05/06 10:12:22;;;;;;;32.63;7.87;;;19.60;99.90;;;;;;5054052;28;20222;-78
2021/05/06 10:14:50;;;;;;;40.80;6.93;;;19.50;99.90;;;;;;5059355;28;20554;-82
2021/05/06 10:17:21;;;;;;;50.33;8.07;;;19.60;99.90;;;;;;5071227;28;20187;-81
2021/05/06 10:19:49;;;;;;;46.87;8.37;;;19.60;99.90;;;;;;5058072;28;20175;-79
2021/05/06 10:22:20;;;;;;;49.97;9.37;;;19.60;99.90;;;;;;5074918;28;20645;-79
2021/05/06 10:24:49;;;;;;;50.53;7.97;;;19.60;99.90;;;;;;5065961;28;20194;-82
2021/05/06 10:27:22;;;;;;;37.67;8.07;;;19.60;99.90;;;;;;5052113;28;20185;-81
2021/05/06 10:29:56;;;;;;;37.87;7.33;;;19.60;99.90;;;;;;5063762;28;20190;-81
2021/05/06 10:32:28;;;;;;;49.33;7.20;;;19.60;99.90;;;;;;5055204;28;20220;-80
2021/05/06 10:34:58;;;;;;;42.07;7.53;;;19.60;99.90;;;;;;5052713;28;20210;-79
2021/05/06 10:37:33;;;;;;;42.63;8.47;;;19.60;99.90;;;;;;5053680;28;20212;-78
2021/05/06 10:40:00;;;;;;;34.07;6.50;;;19.60;99.90;;;;;;5053150;28;20171;-76
2021/05/06 10:42:31;;;;;;;41.20;8.13;;;19.60;99.90;;;;;;5053987;28;20168;-74
2021/05/06 10:45:12;;;;;;;35.53;7.13;;;19.60;99.90;;;;;;5053199;28;20180;-78
2021/05/06 10:47:40;;;;;;;39.67;6.40;;;19.60;99.90;;;;;;5052809;28;20623;-76
2021/05/06 10:50:17;;;;;;;34.80;6.73;;;19.50;99.90;;;;;;5054274;28;20234;-76
2021/05/06 10:52:50;;;;;;;51.00;6.97;;;19.50;99.90;;;;;;5054654;28;20216;-76
2021/05/06 10:55:49;;;;;;;41.57;6.53;;;19.50;99.90;;;;;;5054161;28;20192;-80
2021/05/06 10:58:29;;;;;;;35.23;7.40;;;19.50;99.90;;;;;;5053009;28;20529;-77
2021/05/06 11:01:17;;;;;;;36.23;6.27;;;19.50;99.90;;;;;;5054359;28;20203;-76
2021/05/06 11:04:00;;;;;;;39.53;6.83;;;19.50;99.90;;;;;;5053952;28;20247;-76
2021/05/06 11:06:37;;;;;;;39.90;6.23;;;19.50;99.90;;;;;;5051727;28;20199;-78
2021/05/06 11:09:38;;;;;;;38.67;6.73;;;19.50;99.90;;;;;;5053791;28;20247;-74
2021/05/06 11:12:27;;;;;;;35.77;6.87;;;19.50;99.90;;;;;;5053016;28;20191;-76
2021/05/06 11:15:01;;;;;;;38.37;6.13;;;19.50;99.90;;;;;;5050014;28;20176;-76
2021/05/06 11:17:42;;;;;;;31.50;6.00;;;19.40;99.90;;;;;;5049466;28;20655;-80
2021/05/06 11:20:12;;;;;;;40.30;6.50;;;19.40;99.90;;;;;;5054144;28;20207;-82
2021/05/06 11:22:46;;;;;;;35.97;6.50;;;19.50;99.90;;;;;;5051789;28;20271;-75
2021/05/06 11:25:42;;;;;;;36.00;6.13;;;19.50;99.90;;;;;;5054137;28;20216;-77
2021/05/06 11:28:16;;;;;;;39.47;6.40;;;19.50;99.90;;;;;;5047359;28;20198;-76
2021/05/06 11:30:48;;;;;;;33.53;6.93;;;19.50;99.90;;;;;;5054645;28;20234;-74
2021/05/06 11:33:18;;;;;;;24.27;5.13;;;19.60;99.90;;;;;;5054842;28;20226;-75
2021/05/06 11:35:57;;;;;;;29.83;5.57;;;19.60;99.90;;;;;;5054417;28;20270;-77
2021/05/06 11:38:53;;;;;;;40.67;6.20;;;19.60;99.90;;;;;;5053359;28;20192;-73
2021/05/06 11:41:26;;;;;;;33.53;5.20;;;19.60;99.90;;;;;;5040572;28;20184;-75
2021/05/06 11:43:58;;;;;;;27.00;6.07;;;19.60;99.90;;;;;;5053256;28;20523;-78
2021/05/06 11:46:40;;;;;;;26.17;6.13;;;19.60;99.90;;;;;;5056711;28;20263;-82
2021/05/06 11:49:17;;;;;;;37.93;4.90;;;19.60;99.90;;;;;;5065474;28;20211;-73
2021/05/06 11:51:48;;;;;;;37.87;5.73;;;19.60;99.90;;;;;;5055999;28;20259;-77
2021/05/06 11:54:22;;;;;;;33.57;5.87;;;19.60;99.90;;;;;;5052318;28;20759;-77
2021/05/06 11:57:02;;;;;;;35.07;6.00;;;19.60;99.90;;;;;;5046271;28;20682;-74
2021/05/06 11:59:33;;;;;;;31.83;6.37;;;19.60;99.90;;;;;;5047463;28;20208;-73
2021/05/06 12:02:08;;;;;;;33.57;6.80;;;19.60;99.90;;;;;;5055949;28;20183;-77
2021/05/06 12:04:37;;;;;;;43.27;6.53;;;19.60;99.90;;;;;;5055846;28;20543;-75
2021/05/06 12:07:16;;;;;;;35.93;6.87;;;19.60;99.90;;;;;;5048419;28;20255;-76
2021/05/06 12:09:44;;;;;;;43.93;8.43;;;19.60;99.90;;;;;;5055823;28;20187;-75
2021/05/06 12:12:22;;;;;;;34.50;6.53;;;19.60;99.90;;;;;;5055811;28;20546;-74
2021/05/06 12:14:49;;;;;;;29.83;5.90;;;19.60;99.90;;;;;;5056328;28;20574;-75
2021/05/06 12:17:19;;;;;;;42.90;6.83;;;19.60;99.90;;;;;;5056689;28;20574;-76
2021/05/06 12:19:49;;;;;;;47.00;7.73;;;19.60;99.90;;;;;;5047739;28;20187;-79
2021/05/06 12:22:17;;;;;;;41.97;6.87;;;19.60;99.90;;;;;;5049174;28;20180;-75
2021/05/06 12:24:48;;;;;;;42.73;6.60;;;19.70;99.90;;;;;;5053012;28;20269;-75
2021/05/06 12:27:19;;;;;;;43.10;7.77;;;19.70;99.90;;;;;;5049629;28;20183;-74
2021/05/06 12:29:59;;;;;;;45.20;7.03;;;19.60;99.90;;;;;;5043004;28;20267;-73
2021/05/06 12:32:29;;;;;;;50.53;6.57;;;19.60;99.90;;;;;;5038228;28;20208;-72
2021/05/06 12:34:57;;;;;;;44.83;6.63;;;19.60;99.90;;;;;;5052228;28;20685;-73
2021/05/06 12:37:29;;;;;;;44.67;6.97;;;19.50;99.90;;;;;;5052408;28;20179;-73
2021/05/06 12:39:57;;;;;;;48.70;6.83;;;19.50;99.90;;;;;;5053148;28;20184;-75
2021/05/06 12:42:31;;;;;;;41.47;7.53;;;19.50;99.90;;;;;;5052246;28;20186;-74
2021/05/06 12:45:00;;;;;;;44.63;7.83;;;19.50;99.90;;;;;;5052923;28;20533;-73
2021/05/06 12:47:29;;;;;;;40.50;6.50;;;19.50;99.90;;;;;;5051805;28;20212;-72
2021/05/06 12:50:20;;;;;;;51.83;7.40;;;19.50;99.90;;;;;;5052782;28;20515;-73
2021/05/06 12:52:50;;;;;;;46.60;7.77;;;19.50;99.90;;;;;;5051671;28;20211;-76
2021/05/06 12:55:32;;;;;;;43.40;7.93;;;19.50;99.90;;;;;;5052873;28;20545;-78
2021/05/06 12:58:18;;;;;;;42.80;6.47;;;19.50;99.90;;;;;;5040666;28;20175;-74
2021/05/06 13:00:49;;;;;;;43.43;7.43;;;19.40;99.90;;;;;;5055613;28;20539;-77
2021/05/06 13:03:17;;;;;;;32.20;5.33;;;19.50;99.90;;;;;;5058895;28;20180;-77
2021/05/06 13:05:48;;;;;;;47.30;6.17;;;19.40;99.90;;;;;;5053994;28;20541;-81
2021/05/06 13:08:16;;;;;;;38.10;6.67;;;19.40;99.90;;;;;;5038847;28;20195;-75
2021/05/06 13:10:46;;;;;;;29.57;4.47;;;19.40;99.90;;;;;;5052180;28;20560;-75
2021/05/06 13:13:49;;;;;;;16.07;3.40;;;19.20;99.90;;;;;;5051904;28;20215;-76
2021/05/06 13:16:41;;;;;;;22.50;4.40;;;19.10;99.90;;;;;;5051547;28;20517;-77
2021/05/06 13:19:15;;;;;;;10.93;2.53;;;19.00;99.90;;;;;;5052236;28;20187;-75
2021/05/06 13:21:51;;;;;;;18.07;2.77;;;18.90;99.90;;;;;;5052032;28;20655;-76
2021/05/06 13:24:19;;;;;;;14.07;3.03;;;18.80;99.90;;;;;;5054477;28;20241;-76
2021/05/06 13:26:47;;;;;;;21.77;4.67;;;18.70;99.90;;;;;;5054224;28;20183;-77
2021/05/06 13:29:17;;;;;;;12.87;2.70;;;18.70;99.90;;;;;;5056260;28;20186;-73
2021/05/06 13:31:47;;;;;;;24.30;4.43;;;18.70;99.90;;;;;;5055527;28;20211;-75
2021/05/06 13:34:18;;;;;;;22.87;3.80;;;18.70;99.90;;;;;;5055730;28;20210;-75
2021/05/06 13:37:01;;;;;;;20.07;4.23;;;18.70;99.90;;;;;;5055673;28;20584;-74
2021/05/06 13:39:29;;;;;;;24.77;4.37;;;18.70;99.90;;;;;;5045503;28;20635;-74
2021/05/06 13:41:57;;;;;;;25.63;3.80;;;18.60;99.90;;;;;;5045105;28;20194;-78
2021/05/06 13:44:28;;;;;;;31.87;5.63;;;18.60;99.90;;;;;;5055640;28;20561;-73
2021/05/06 13:46:58;;;;;;;28.50;4.27;;;18.60;99.90;;;;;;5054140;28;20180;-73
2021/05/06 13:49:30;;;;;;;39.07;5.70;;;18.60;99.90;;;;;;5055081;28;20176;-74
2021/05/06 13:51:59;;;;;;;37.60;5.97;;;18.60;99.90;;;;;;5054447;28;20179;-76
2021/05/06 13:54:28;;;;;;;40.03;5.93;;;18.60;99.90;;;;;;5055456;28;20183;-76
2021/05/06 13:56:56;;;;;;;35.87;6.83;;;18.70;99.90;;;;;;5055040;28;20180;-77
2021/05/06 13:59:23;;;;;;;33.60;5.63;;;18.60;99.90;;;;;;5055684;28;20241;-77
2021/05/06 14:01:55;;;;;;;47.70;5.97;;;18.70;99.90;;;;;;5055792;28;20176;-75
2021/05/06 14:04:23;;;;;;;38.53;5.57;;;18.70;99.90;;;;;;5054830;28;20608;-77
2021/05/06 14:06:51;;;;;;;37.93;6.33;;;18.70;99.90;;;;;;5053982;28;20211;-78
2021/05/06 14:09:19;;;;;;;42.50;5.93;;;18.70;99.90;;;;;;5055561;28;20207;-77
2021/05/06 14:11:48;;;;;;;32.70;5.90;;;18.70;99.90;;;;;;5054614;28;20180;-74
2021/05/06 14:14:16;;;;;;;37.50;6.03;;;18.80;99.90;;;;;;5055102;28;20270;-74
2021/05/06 14:16:44;;;;;;;39.77;6.07;;;18.80;99.90;;;;;;5055079;28;20184;-75
2021/05/06 14:19:13;;;;;;;39.60;6.40;;;18.80;99.90;;;;;;5055196;28;20275;-76
2021/05/06 14:21:48;;;;;;;44.73;8.13;;;18.90;99.90;;;;;;5042875;28;20180;-76
2021/05/06 14:24:16;;;;;;;45.83;6.67;;;18.90;99.90;;;;;;5051893;28;20183;-73
2021/05/06 14:26:47;;;;;;;47.47;7.73;;;18.90;99.90;;;;;;5053594;28;20278;-73
2021/05/06 14:29:15;;;;;;;53.73;7.53;;;18.90;99.90;;;;;;5053615;28;20270;-75
2021/05/06 14:31:43;;;;;;;51.73;8.90;;;19.10;99.90;;;;;;5045330;28;20612;-73
2021/05/06 14:34:10;;;;;;;52.53;9.13;;;19.10;99.90;;;;;;5052318;28;20219;-75
2021/05/06 14:36:38;;;;;;;53.17;8.70;;;19.20;99.90;;;;;;5057675;28;20192;-73
2021/05/06 14:39:08;;;;;;;59.95;9.95;;;19.20;99.90;;;;;;5059914;28;20447;-74
2021/05/06 14:41:38;;;;;;;55.87;9.80;;;19.20;99.90;;;;;;5056982;28;20654;-75
2021/05/06 14:44:05;;;;;;;60.53;9.77;;;19.40;99.90;;;;;;5058523;28;20210;-74
2021/05/06 14:46:33;;;;;;;62.07;10.77;;;19.50;99.90;;;;;;5052469;28;20266;-78
2021/05/06 14:49:00;;;;;;;61.57;10.67;;;19.50;99.90;;;;;;5059381;28;20255;-78
2021/05/06 14:51:28;;;;;;;54.70;9.27;;;19.60;99.90;;;;;;5070420;28;20183;-74
2021/05/06 14:53:55;;;;;;;46.77;7.03;;;19.60;99.90;;;;;;5055881;28;20234;-74
2021/05/06 14:56:23;;;;;;;32.07;6.10;;;19.60;99.90;;;;;;5067642;28;20172;-73
2021/05/06 14:58:50;;;;;;;33.40;6.50;;;19.50;99.90;;;;;;5054493;28;20184;-72
2021/05/06 15:01:17;;;;;;;32.50;6.20;;;19.50;99.90;;;;;;5067734;28;20224;-77
2021/05/06 15:03:45;;;;;;;32.23;5.63;;;19.50;99.90;;;;;;5073754;28;20179;-72
2021/05/06 15:06:12;;;;;;;27.07;5.73;;;19.50;99.90;;;;;;5073261;28;20633;-77
2021/05/06 15:08:43;;;;;;;28.97;5.53;;;19.50;99.90;;;;;;5066928;28;20183;-78
2021/05/06 15:11:12;;;;;;;22.47;4.80;;;19.50;99.90;;;;;;5074223;28;20236;-74
2021/05/06 15:13:39;;;;;;;26.13;5.33;;;19.50;99.90;;;;;;5071678;28;20716;-74
2021/05/06 15:16:07;;;;;;;22.07;4.23;;;19.50;99.90;;;;;;5057750;28;20183;-76
2021/05/06 15:18:34;;;;;;;21.83;4.57;;;19.50;99.90;;;;;;5073479;28;20192;-73
2021/05/06 15:21:02;;;;;;;29.47;5.80;;;19.60;99.90;;;;;;5064214;28;20580;-76
2021/05/06 15:23:29;;;;;;;27.70;5.57;;;19.60;99.90;;;;;;5074195;28;20179;-78
2021/05/06 15:25:57;;;;;;;26.60;4.43;;;19.60;99.90;;;;;;5061722;28;20184;-74
2021/05/06 15:28:24;;;;;;;24.13;5.20;;;19.60;99.90;;;;;;5072251;28;20667;-74
2021/05/06 15:30:54;;;;;;;35.37;5.60;;;19.60;99.90;;;;;;5063114;28;20250;-75
2021/05/06 15:33:22;;;;;;;32.57;4.53;;;19.60;99.90;;;;;;5071167;28;20253;-74
2021/05/06 15:35:50;;;;;;;35.63;6.67;;;19.60;99.90;;;;;;5072774;28;20529;-74
2021/05/06 15:38:19;;;;;;;34.00;5.47;;;19.60;99.90;;;;;;5054034;28;20344;-73
2021/05/06 15:40:48;;;;;;;38.57;5.50;;;19.60;99.90;;;;;;5048045;28;20511;-73
2021/05/06 15:43:16;;;;;;;26.03;4.90;;;19.50;99.90;;;;;;5054188;28;20199;-74
2021/05/06 15:45:43;;;;;;;29.87;5.27;;;19.30;99.90;;;;;;5054901;28;20668;-74
2021/05/06 15:48:12;;;;;;;35.20;6.40;;;19.20;99.90;;;;;;5050086;28;20180;-75
2021/05/06 15:50:41;;;;;;;28.83;5.53;;;19.20;99.90;;;;;;5054264;28;20643;-76
2021/05/06 15:53:09;;;;;;;42.70;5.77;;;19.20;99.90;;;;;;5058493;28;20212;-77
2021/05/06 15:55:37;;;;;;;31.73;5.07;;;19.10;99.90;;;;;;5066353;28;20186;-75
2021/05/06 15:58:06;;;;;;;33.67;5.63;;;19.10;99.90;;;;;;5059249;28;20637;-74
2021/05/06 16:00:34;;;;;;;27.73;4.20;;;19.00;99.90;;;;;;5059897;28;20192;-75
2021/05/06 16:03:08;;;;;;;37.53;5.10;;;19.00;99.90;;;;;;5059608;28;20179;-76
2021/05/06 16:05:37;;;;;;;22.93;4.10;;;18.90;99.90;;;;;;5049790;28;20303;-74
2021/05/06 16:08:06;;;;;;;32.97;4.13;;;18.90;99.90;;;;;;5062539;28;20245;-72
2021/05/06 16:10:33;;;;;;;31.63;5.30;;;18.90;99.90;;;;;;5058180;28;20176;-75
2021/05/06 16:13:01;;;;;;;39.20;4.63;;;18.90;99.90;;;;;;5060475;28;20207;-76
2021/05/06 16:15:29;;;;;;;28.17;4.43;;;18.80;99.90;;;;;;5053831;28;20184;-72
2021/05/06 16:17:56;;;;;;;42.17;6.43;;;18.80;99.90;;;;;;5056157;28;20208;-74